Autoridad de Aeronautica Civil de Panamá***
**



ESTACIONES DESCRIPCION
MPTO (M) 191500Z 19003KT 9000 SCT018CB 31/26 Q1010 NOSIG RMK TCU DSNT SE HZ ALQDS=  
MPMG (M) 191500Z 33010KT 270V360 9000 FEW018TCU SCT080 31/27 Q1010 NOSIG RMK TCU N HZ ALQDS=  
MPPA (M) 191500Z 01004KT 9999 FEW018 SCT090 ///// Q1009=  
MPDA (M) 200300Z 10004KT 9999 FEW016 27/26 Q1007 NOSIG=  
MPSM (M) 172100Z 14008KT 9999 FEW030 31/25 Q1008=  
MPBO (M) 191900Z 25006KT 8000 -RA SCT008 SCT015 OVC080 26/26 Q1009 RMK ST ALQDS=  
MPCH (M) 191900Z 25004KT(E) 9999 SCT020 BKN080 ///// Q//// RMK DSNT PCPN E =  
MPEJ (M) 191500Z 03008KT 9000 SCT015TCU ///// Q//// RMK TCU N/W=  
MPCE (M)191500Z 35006KT 9999 SCT020 33/24 Q1009=  
MPPN (M) 191500Z 36010KT 9999 FEW020 30125 Q1007=  
MPSA (M) 181700Z 00000KT 9999 SCT018 SCT090 32/24 Q1011=  


CLIMATOLOGIA AERONAUTICA

EL DIA INICIA A LAS 00:00 UTC

19:00 HORA LOCAL 07:00 pm HORA LEGAL LOCAL

CLIMATICA MPMG 18/05/2024

MARCOS A.GELABERT LABORA (06:00 A.M. A 10:00 PM.)

 

       

 

PCPN

(MM)

T°C MÁX.

 

T°C MIN.

 

VIENTO MAX

(KT)

HORA

VIENTO MAX

VIENTO

PRED.

14.6

31.5

26.1

VRB06G16KT 1740Z NW 05KT
         

 

 

 

 

 

CLIMATICA MPTO  19/05/2024

TOCUMEN HORARIO 24 horas

 

       

 

PCPN

(MM)

T°C MÁX.

 

T°C MÍN.

 

VIENTO MAX

(KT)

HORA

VIENTO MAX

VIENTO

PRED.

0

34.0

25.3

03008KT

23:00Z

NW03

CLIMATICA MPPA 19/05/2024

PANAMÁ PACÍFICO LABORA (06:00AM A 10:00PM)

NO OFRECE REGISTRO DE PRECIPITACIÓN

 

       

 

PCPN

(MM)

T°C MÁX.

 

T°C MÍN.

 

VIENTO MAX

(KT)

HORA

VIENTO MAX

VIENTO

PRED.

//

//

//

01006KT

1800Z

N08KT

           

 

CLIMATICA MPDA 19/05/2024

 

ENRIQUE MALEK de 06:00AM a 10:00PM

 

       

VIENTO

       PRED

 

PCPN

(MM)

T°C MÁX.

 

T°C MÍN.

 

VIENTO MAX

(KT)

HORA

VIENTO MAX

   SW 04KT
        31.3

24.9

       22009KT

2200Z

         

 



Contador: 196672